Time;durP1;ratioP1;P1;durP2;ratioP2;P2;SDS_P1;SDS_P2;PMS_P1;PMS_P2;Temp;Humidity;BMP_temperature;BMP_pressure;BME280_temperature;BME280_humidity;BME280_pressure;Samples;Min_cycle;Max_cycle;Signal;HPM_P1;HPM_P2
2022/01/07 00:01:14;;;;;;;58.60;34.22;;;;;;;;;;5112695;28;20043;-71
2022/01/07 00:04:19;;;;;;;70.97;41.58;;;;;;;;;;5112562;28;20042;-71
2022/01/07 00:07:23;;;;;;;81.10;45.92;;;;;;;;;;5112758;28;20600;-71
2022/01/07 00:10:27;;;;;;;105.38;58.50;;;;;;;;;;5112505;28;20379;-71
2022/01/07 00:13:32;;;;;;;110.10;58.35;;;;;;;;;;5112443;28;20054;-71
2022/01/07 00:16:36;;;;;;;67.60;39.90;;;;;;;;;;5112549;28;20050;-71
2022/01/07 00:19:41;;;;;;;58.15;34.40;;;;;;;;;;5112435;28;20494;-71
2022/01/07 00:22:46;;;;;;;62.40;33.90;;;;;;;;;;5099821;28;20046;-71
2022/01/07 00:25:50;;;;;;;60.75;34.78;;;;;;;;;;5112415;28;20039;-71
2022/01/07 00:28:54;;;;;;;40.65;22.67;;;;;;;;;;5112038;28;20042;-71
2022/01/07 00:31:59;;;;;;;38.53;20.38;;;;;;;;;;5112139;28;20043;-71
2022/01/07 00:35:04;;;;;;;42.67;22.17;;;;;;;;;;5112240;28;20050;-71
2022/01/07 00:38:08;;;;;;;62.20;34.88;;;;;;;;;;5099376;28;20514;-71
2022/01/07 00:41:12;;;;;;;59.13;35.20;;;;;;;;;;5112005;28;20046;-71
2022/01/07 00:44:17;;;;;;;55.25;29.60;;;;;;;;;;5111765;28;20047;-71
2022/01/07 00:47:21;;;;;;;46.97;27.58;;;;;;;;;;5111977;28;20043;-71
2022/01/07 00:50:27;;;;;;;50.03;27.30;;;;;;;;;;5099088;28;20051;-71
2022/01/07 00:53:32;;;;;;;45.20;22.40;;;;;;;;;;5111928;28;20387;-71
2022/01/07 00:56:36;;;;;;;41.42;23.48;;;;;;;;;;5111755;28;20051;-71
2022/01/07 00:59:40;;;;;;;42.05;22.70;;;;;;;;;;5099180;28;20046;-71
2022/01/07 01:02:44;;;;;;;34.60;20.70;;;;;;;;;;5087627;28;20042;-71
2022/01/07 01:05:52;;;;;;;41.33;21.75;;;;;;;;;;5111739;28;20038;-71
2022/01/07 01:08:56;;;;;;;44.88;22.63;;;;;;;;;;5111745;28;20400;-71
2022/01/07 01:12:01;;;;;;;33.67;17.00;;;;;;;;;;5111653;28;20043;-71
2022/01/07 01:15:06;;;;;;;28.17;15.32;;;;;;;;;;5111481;28;20046;-71
2022/01/07 01:18:10;;;;;;;22.33;12.50;;;;;;;;;;5111150;28;20054;-71
2022/01/07 01:21:15;;;;;;;20.58;11.02;;;;;;;;;;5099008;28;20042;-71
2022/01/07 01:24:19;;;;;;;19.42;11.18;;;;;;;;;;5111358;28;20054;-71
2022/01/07 01:27:23;;;;;;;21.45;10.90;;;;;;;;;;5111546;28;20498;-71
2022/01/07 01:30:28;;;;;;;16.92;8.82;;;;;;;;;;5111409;28;20046;-71
2022/01/07 01:33:33;;;;;;;16.27;7.47;;;;;;;;;;5111334;28;20517;-71
2022/01/07 01:36:37;;;;;;;15.95;6.50;;;;;;;;;;5111060;28;20055;-71
2022/01/07 01:39:42;;;;;;;13.43;5.72;;;;;;;;;;5111021;28;20046;-71
2022/01/07 01:42:47;;;;;;;9.43;5.50;;;;;;;;;;5111205;28;20054;-70
2022/01/07 01:45:51;;;;;;;15.30;6.63;;;;;;;;;;5087177;28;20040;-71
2022/01/07 01:48:59;;;;;;;13.45;7.95;;;;;;;;;;5110942;28;20035;-71
2022/01/07 01:52:03;;;;;;;16.00;6.60;;;;;;;;;;5111176;28;20050;-71
2022/01/07 01:55:07;;;;;;;9.23;5.05;;;;;;;;;;5098564;28;20038;-71
2022/01/07 01:58:12;;;;;;;11.13;5.07;;;;;;;;;;5111289;28;20082;-71
2022/01/07 02:01:16;;;;;;;17.17;5.53;;;;;;;;;;5102619;28;20062;-71
2022/01/07 02:04:21;;;;;;;9.45;4.97;;;;;;;;;;5102663;28;20051;-71
2022/01/07 02:07:27;;;;;;;10.65;4.63;;;;;;;;;;5114818;28;20039;-71
2022/01/07 02:10:31;;;;;;;15.63;5.85;;;;;;;;;;5114920;28;20039;-71
2022/01/07 02:13:35;;;;;;;10.05;5.88;;;;;;;;;;5115072;28;20042;-71
2022/01/07 02:16:40;;;;;;;9.27;4.13;;;;;;;;;;5114819;28;20516;-71
2022/01/07 02:19:44;;;;;;;8.18;3.80;;;;;;;;;;5102015;28;20031;-71
2022/01/07 02:22:48;;;;;;;6.07;2.85;;;;;;;;;;5114936;28;20032;-71
2022/01/07 02:25:53;;;;;;;6.28;2.33;;;;;;;;;;5114716;28;20043;-71
2022/01/07 02:28:57;;;;;;;4.90;1.60;;;;;;;;;;5114303;28;20031;-71
2022/01/07 02:32:01;;;;;;;4.30;1.30;;;;;;;;;;5114529;28;20040;-71
2022/01/07 02:35:08;;;;;;;6.07;1.27;;;;;;;;;;5101986;28;20043;-71
2022/01/07 02:38:16;;;;;;;7.35;1.52;;;;;;;;;;5101388;28;20040;-71
2022/01/07 02:41:20;;;;;;;4.80;1.00;;;;;;;;;;5114188;28;20036;-71
2022/01/07 02:44:24;;;;;;;4.20;1.45;;;;;;;;;;5101764;28;20036;-71
2022/01/07 02:47:35;;;;;;;2.88;1.20;;;;;;;;;;5090132;28;20098;-71
2022/01/07 02:50:39;;;;;;;5.55;1.80;;;;;;;;;;5114340;28;20039;-71
2022/01/07 02:53:44;;;;;;;6.35;1.42;;;;;;;;;;5114240;28;20044;-71
2022/01/07 02:56:48;;;;;;;10.07;2.05;;;;;;;;;;5113779;28;20044;-71
2022/01/07 02:59:53;;;;;;;4.60;1.20;;;;;;;;;;5113712;28;20648;-71
2022/01/07 03:02:58;;;;;;;3.90;1.27;;;;;;;;;;5113925;28;20031;-71
2022/01/07 03:06:02;;;;;;;6.10;1.30;;;;;;;;;;5113588;28;20031;-71
2022/01/07 03:09:06;;;;;;;5.78;2.15;;;;;;;;;;5113375;28;20104;-71
2022/01/07 03:12:10;;;;;;;7.03;2.20;;;;;;;;;;5114029;28;20035;-71
2022/01/07 03:15:15;;;;;;;6.07;2.17;;;;;;;;;;5101186;28;20043;-71
2022/01/07 03:18:19;;;;;;;7.15;1.77;;;;;;;;;;5113329;28;20528;-71
2022/01/07 03:21:24;;;;;;;7.32;1.60;;;;;;;;;;5113586;28;20028;-71
2022/01/07 03:24:28;;;;;;;5.03;1.30;;;;;;;;;;5113319;28;20368;-71
2022/01/07 03:27:32;;;;;;;3.63;0.90;;;;;;;;;;5113161;28;20040;-71
2022/01/07 03:30:37;;;;;;;6.28;1.23;;;;;;;;;;5101032;28;20031;-71
2022/01/07 03:33:42;;;;;;;5.78;1.00;;;;;;;;;;5113393;28;20527;-71
2022/01/07 03:36:46;;;;;;;5.30;1.05;;;;;;;;;;5100578;28;20040;-71
2022/01/07 03:39:50;;;;;;;4.25;1.35;;;;;;;;;;5113005;28;20051;-71
2022/01/07 03:42:55;;;;;;;6.55;1.35;;;;;;;;;;5113206;28;20027;-71
2022/01/07 03:45:59;;;;;;;2.90;1.10;;;;;;;;;;5112879;28;20035;-71
2022/01/07 03:49:04;;;;;;;5.47;1.05;;;;;;;;;;5113170;28;20035;-71
2022/01/07 03:52:08;;;;;;;7.93;3.13;;;;;;;;;;5113063;28;20039;-71
2022/01/07 03:55:14;;;;;;;8.48;2.80;;;;;;;;;;5112927;28;20044;-71
2022/01/07 03:58:19;;;;;;;5.10;1.02;;;;;;;;;;5112649;28;20056;-71
2022/01/07 04:01:23;;;;;;;4.82;1.25;;;;;;;;;;5112842;28;20036;-71
2022/01/07 04:04:30;;;;;;;6.70;1.20;;;;;;;;;;5112999;28;20073;-71
2022/01/07 04:07:34;;;;;;;8.43;1.27;;;;;;;;;;5112872;28;20044;-71
2022/01/07 04:10:39;;;;;;;4.63;1.20;;;;;;;;;;5112612;28;20043;-71
2022/01/07 04:13:44;;;;;;;3.38;1.20;;;;;;;;;;5100184;28;20503;-71
2022/01/07 04:16:48;;;;;;;5.60;1.40;;;;;;;;;;5099803;28;20047;-71
2022/01/07 04:19:52;;;;;;;5.63;1.50;;;;;;;;;;5112162;28;20040;-71
2022/01/07 04:22:58;;;;;;;6.55;1.02;;;;;;;;;;5112261;28;20035;-71
2022/01/07 04:26:05;;;;;;;6.35;1.10;;;;;;;;;;5112617;28;20031;-71
2022/01/07 04:29:09;;;;;;;6.75;1.05;;;;;;;;;;5112272;28;20043;-71
2022/01/07 04:32:13;;;;;;;7.50;1.08;;;;;;;;;;5112488;28;20039;-71
2022/01/07 04:35:18;;;;;;;9.02;1.45;;;;;;;;;;5112101;28;20036;-70
2022/01/07 04:38:23;;;;;;;5.68;1.20;;;;;;;;;;5112131;28;20051;-71
2022/01/07 04:41:27;;;;;;;2.70;0.88;;;;;;;;;;5076497;28;20032;-71
2022/01/07 04:44:32;;;;;;;3.95;1.05;;;;;;;;;;5112178;28;20043;-71
2022/01/07 04:47:38;;;;;;;3.15;1.10;;;;;;;;;;5111884;28;20039;-71
2022/01/07 04:50:42;;;;;;;8.95;2.10;;;;;;;;;;5112165;28;20040;-71
2022/01/07 04:53:47;;;;;;;6.25;1.08;;;;;;;;;;5112055;28;20039;-71
2022/01/07 04:56:51;;;;;;;4.03;1.20;;;;;;;;;;5111493;28;20480;-71
2022/01/07 04:59:56;;;;;;;5.78;1.35;;;;;;;;;;5111466;28;20547;-71
2022/01/07 05:03:00;;;;;;;6.63;1.05;;;;;;;;;;5111873;28;20040;-71
2022/01/07 05:06:43;;;;;;;9.57;1.35;;;;;;;;;;5098966;28;20035;-71
2022/01/07 05:09:35;;;;;;;4.47;1.08;;;;;;;;;;5111231;28;20043;-71
2022/01/07 05:12:42;;;;;;;2.50;0.90;;;;;;;;;;5112250;28;20036;-71
2022/01/07 05:15:47;;;;;;;3.70;1.10;;;;;;;;;;5112274;28;20035;-71
2022/01/07 05:18:51;;;;;;;4.80;1.17;;;;;;;;;;5112037;28;20487;-71
2022/01/07 05:21:56;;;;;;;6.22;1.70;;;;;;;;;;5099682;28;20035;-71
2022/01/07 05:25:00;;;;;;;5.85;1.50;;;;;;;;;;5099766;28;20036;-71
2022/01/07 05:28:05;;;;;;;6.30;1.05;;;;;;;;;;5099179;28;20032;-71
2022/01/07 05:31:13;;;;;;;8.55;1.45;;;;;;;;;;5112160;28;20031;-71
2022/01/07 05:34:18;;;;;;;4.25;1.20;;;;;;;;;;5114949;28;20035;-71
2022/01/07 05:37:22;;;;;;;6.28;1.70;;;;;;;;;;5103594;28;20043;-71
2022/01/07 05:40:26;;;;;;;11.00;1.90;;;;;;;;;;5103508;28;20051;-71
2022/01/07 05:43:31;;;;;;;12.15;3.58;;;;;;;;;;5116331;28;20394;-72
2022/01/07 05:46:35;;;;;;;10.95;1.80;;;;;;;;;;5116076;28;20043;-71
2022/01/07 05:49:39;;;;;;;8.95;2.38;;;;;;;;;;5115952;28;20047;-72
2022/01/07 05:52:44;;;;;;;7.70;1.65;;;;;;;;;;5115659;28;20035;-72
2022/01/07 05:55:48;;;;;;;2.80;1.05;;;;;;;;;;5116041;28;20039;-71
2022/01/07 05:58:53;;;;;;;6.07;1.38;;;;;;;;;;5115866;28;20051;-72
2022/01/07 06:01:57;;;;;;;6.05;1.42;;;;;;;;;;5116045;28;20376;-72
2022/01/07 06:05:02;;;;;;;4.82;1.17;;;;;;;;;;5116102;28;20043;-71
2022/01/07 06:08:09;;;;;;;9.48;2.00;;;;;;;;;;5115729;28;20036;-71
2022/01/07 06:11:13;;;;;;;4.63;1.30;;;;;;;;;;5103141;28;20039;-71
2022/01/07 06:14:18;;;;;;;4.97;1.10;;;;;;;;;;5103274;28;20364;-73
2022/01/07 06:17:23;;;;;;;6.45;1.70;;;;;;;;;;5115790;28;20055;-71
2022/01/07 06:20:27;;;;;;;3.45;1.00;;;;;;;;;;5115837;28;20043;-71
2022/01/07 06:23:32;;;;;;;7.55;1.30;;;;;;;;;;5091847;28;20040;-71
2022/01/07 06:26:38;;;;;;;6.53;1.40;;;;;;;;;;5103744;28;20035;-72
2022/01/07 06:29:42;;;;;;;5.63;1.35;;;;;;;;;;5102944;28;20036;-71
2022/01/07 06:32:46;;;;;;;7.25;1.35;;;;;;;;;;5116296;28;20039;-72
2022/01/07 06:35:51;;;;;;;4.43;1.00;;;;;;;;;;5116698;28;20043;-71
2022/01/07 06:38:55;;;;;;;8.35;1.40;;;;;;;;;;5101725;28;20052;-71
2022/01/07 06:42:00;;;;;;;5.75;1.30;;;;;;;;;;5102955;28;20472;-72
2022/01/07 06:45:05;;;;;;;3.80;0.98;;;;;;;;;;5115429;28;20039;-73
2022/01/07 06:48:10;;;;;;;3.08;0.82;;;;;;;;;;5115924;28;20032;-70
2022/01/07 06:51:15;;;;;;;9.45;1.65;;;;;;;;;;5103407;28;20379;-71
2022/01/07 06:54:19;;;;;;;4.80;1.20;;;;;;;;;;5102951;28;20036;-74
2022/01/07 06:57:23;;;;;;;8.93;1.73;;;;;;;;;;5116048;28;20044;-72
2022/01/07 07:00:28;;;;;;;10.35;2.10;;;;;;;;;;5116327;28;20028;-72
2022/01/07 07:03:34;;;;;;;10.60;2.08;;;;;;;;;;5115779;28;20043;-72
2022/01/07 07:06:39;;;;;;;9.75;1.67;;;;;;;;;;5115219;28;20042;-71
2022/01/07 07:09:43;;;;;;;5.40;1.60;;;;;;;;;;5115422;28;20495;-73
2022/01/07 07:12:51;;;;;;;6.10;1.42;;;;;;;;;;5114517;28;20044;-71
2022/01/07 07:15:56;;;;;;;5.63;1.45;;;;;;;;;;5115050;28;20040;-72
2022/01/07 07:19:00;;;;;;;7.45;1.65;;;;;;;;;;5114308;28;20051;-69
2022/01/07 07:22:04;;;;;;;8.02;1.98;;;;;;;;;;5103157;28;20364;-74
2022/01/07 07:25:09;;;;;;;8.50;2.10;;;;;;;;;;5114760;28;20414;-78
2022/01/07 07:28:14;;;;;;;5.28;1.58;;;;;;;;;;5116354;28;20377;-77
2022/01/07 07:31:19;;;;;;;6.75;1.63;;;;;;;;;;5104058;28;20035;-75
2022/01/07 07:37:37;;;;;;;6.22;1.25;;;;;;;;;;5115151;28;20051;-72
2022/01/07 07:40:42;;;;;;;31.98;3.97;;;;;;;;;;5101089;28;20047;-65
2022/01/07 07:43:50;;;;;;;4.88;1.67;;;;;;;;;;5112959;28;20064;-63
2022/01/07 07:46:54;;;;;;;12.32;1.58;;;;;;;;;;5112970;28;20039;-63
2022/01/07 07:49:58;;;;;;;5.97;2.47;;;;;;;;;;5113433;28;20047;-63
2022/01/07 07:53:03;;;;;;;4.40;1.33;;;;;;;;;;5113167;28;20035;-64
2022/01/07 07:56:08;;;;;;;10.88;5.43;;;;;;;;;;5112285;28;20040;-64
2022/01/07 07:59:12;;;;;;;4.63;1.40;;;;;;;;;;5112646;28;20054;-64
2022/01/07 08:02:17;;;;;;;9.95;1.30;;;;;;;;;;5113058;28;20337;-63
2022/01/07 08:05:24;;;;;;;7.82;1.50;;;;;;;;;;5112848;28;20036;-65
2022/01/07 08:08:28;;;;;;;5.38;1.20;;;;;;;;;;5112811;28;20364;-66
2022/01/07 08:11:47;;;;;;;6.65;1.63;;;;;;;;;;5112327;28;20487;-66
2022/01/07 08:18:15;;;;;;;7.78;1.52;;;;;;;;;;5112435;28;20048;-63
2022/01/07 08:21:20;;;;;;;7.32;1.55;;;;;;;;;;5112814;28;20035;-64
2022/01/07 08:24:24;;;;;;;13.65;1.73;;;;;;;;;;5112396;28;20039;-61
2022/01/07 08:27:28;;;;;;;11.32;2.65;;;;;;;;;;5099880;28;20055;-64
2022/01/07 08:30:37;;;;;;;7.70;1.90;;;;;;;;;;5112044;28;20043;-64
2022/01/07 08:37:05;;;;;;;3.28;1.50;;;;;;;;;;5111903;28;20050;-64
2022/01/07 08:40:11;;;;;;;13.30;2.05;;;;;;;;;;5099205;28;20475;-61
2022/01/07 08:43:15;;;;;;;9.73;1.75;;;;;;;;;;5112023;28;20042;-64
2022/01/07 08:46:19;;;;;;;3.08;1.35;;;;;;;;;;5112125;28;20384;-62
2022/01/07 08:49:24;;;;;;;10.40;1.80;;;;;;;;;;5111788;28;20036;-62
2022/01/07 08:52:29;;;;;;;4.95;1.50;;;;;;;;;;5111892;28;20050;-63
2022/01/07 08:55:34;;;;;;;12.55;2.05;;;;;;;;;;5099769;28;20035;-63
2022/01/07 08:58:39;;;;;;;7.25;1.40;;;;;;;;;;5111697;28;20059;-62
2022/01/07 09:01:43;;;;;;;6.53;1.83;;;;;;;;;;5111567;28;20028;-64
2022/01/07 09:04:47;;;;;;;7.97;1.95;;;;;;;;;;5111768;28;20047;-62
2022/01/07 09:07:51;;;;;;;4.78;1.75;;;;;;;;;;5111142;28;20040;-60
2022/01/07 09:10:56;;;;;;;5.82;1.20;;;;;;;;;;5111647;28;20039;-62
2022/01/07 09:14:00;;;;;;;4.30;1.63;;;;;;;;;;5110977;28;20363;-62
2022/01/07 09:17:05;;;;;;;8.40;1.77;;;;;;;;;;5110972;28;20047;-62
2022/01/07 09:20:10;;;;;;;9.00;2.25;;;;;;;;;;5111811;28;20039;-61
2022/01/07 09:23:15;;;;;;;3.78;1.50;;;;;;;;;;5111535;28;20363;-61
2022/01/07 09:26:19;;;;;;;8.90;2.83;;;;;;;;;;5111658;28;20028;-62
2022/01/07 09:29:24;;;;;;;5.18;1.50;;;;;;;;;;5111484;28;20040;-62
2022/01/07 09:32:28;;;;;;;9.07;2.22;;;;;;;;;;5111154;28;20032;-62
2022/01/07 09:35:32;;;;;;;6.28;2.20;;;;;;;;;;5111228;28;20044;-61
2022/01/07 09:38:36;;;;;;;7.20;2.35;;;;;;;;;;5098156;28;20051;-63
2022/01/07 09:41:41;;;;;;;5.93;1.83;;;;;;;;;;5111273;28;20043;-63
2022/01/07 09:44:45;;;;;;;7.57;1.80;;;;;;;;;;5111487;28;20043;-64
2022/01/07 09:47:51;;;;;;;4.72;1.75;;;;;;;;;;5098442;28;20036;-63
2022/01/07 09:50:55;;;;;;;6.47;1.70;;;;;;;;;;5111072;28;20039;-62
2022/01/07 09:54:09;;;;;;;18.10;4.00;;;;;;;;;;5111374;28;20039;-63
2022/01/07 09:57:13;;;;;;;6.80;1.77;;;;;;;;;;5111037;28;20597;-63
2022/01/07 10:00:18;;;;;;;12.88;2.17;;;;;;;;;;5110787;28;20036;-63
2022/01/07 10:03:22;;;;;;;7.97;1.60;;;;;;;;;;5110853;28;20046;-62
2022/01/07 10:06:27;;;;;;;6.35;1.60;;;;;;;;;;5111217;28;20044;-62
2022/01/07 10:09:35;;;;;;;9.38;1.95;;;;;;;;;;5111092;28;20483;-63
2022/01/07 10:12:56;;;;;;;5.93;1.80;;;;;;;;;;5098455;28;20039;-62
2022/01/07 10:16:12;;;;;;;7.50;1.53;;;;;;;;;;5110861;28;20043;-62
2022/01/07 10:19:34;;;;;;;8.20;1.85;;;;;;;;;;5111497;28;20039;-62
2022/01/07 10:22:53;;;;;;;7.25;2.10;;;;;;;;;;5114741;28;20039;-61
2022/01/07 10:25:58;;;;;;;4.82;1.88;;;;;;;;;;5114741;28;20416;-62
2022/01/07 10:29:02;;;;;;;8.15;2.20;;;;;;;;;;5114790;28;20044;-62
2022/01/07 10:32:39;;;;;;;8.70;2.10;;;;;;;;;;5114722;28;20047;-60
2022/01/07 10:35:43;;;;;;;8.27;2.25;;;;;;;;;;5085779;28;20044;-63
2022/01/07 10:38:47;;;;;;;9.18;2.28;;;;;;;;;;5113959;28;20047;-62
2022/01/07 10:42:01;;;;;;;8.27;1.92;;;;;;;;;;5114222;28;20040;-61
2022/01/07 10:45:05;;;;;;;5.93;2.00;;;;;;;;;;5114468;28;20028;-61
2022/01/07 10:48:10;;;;;;;13.65;2.97;;;;;;;;;;5101608;28;20467;-62
2022/01/07 10:51:16;;;;;;;4.60;2.00;;;;;;;;;;5101845;28;20046;-61
2022/01/07 10:54:22;;;;;;;5.68;2.40;;;;;;;;;;5114104;28;20032;-62
2022/01/07 10:57:36;;;;;;;5.25;1.90;;;;;;;;;;5113548;28;20040;-63
2022/01/07 11:00:41;;;;;;;10.30;2.60;;;;;;;;;;5114018;28;20032;-62
2022/01/07 11:03:49;;;;;;;6.97;2.10;;;;;;;;;;5101262;28;20663;-61
2022/01/07 11:06:56;;;;;;;8.23;1.75;;;;;;;;;;5113867;28;20044;-62
2022/01/07 11:10:00;;;;;;;5.78;2.20;;;;;;;;;;5113746;28;20044;-63
2022/01/07 11:13:05;;;;;;;6.68;2.22;;;;;;;;;;5113950;28;20036;-63
2022/01/07 11:16:09;;;;;;;6.03;2.05;;;;;;;;;;5113422;28;20036;-61
2022/01/07 11:19:21;;;;;;;4.55;1.70;;;;;;;;;;5111525;28;20047;-62
2022/01/07 11:22:27;;;;;;;8.27;2.17;;;;;;;;;;5111708;28;20048;-62
2022/01/07 11:25:32;;;;;;;9.30;2.90;;;;;;;;;;5111701;28;20372;-63
2022/01/07 11:28:38;;;;;;;12.48;4.57;;;;;;;;;;5111815;28;20031;-61
2022/01/07 11:31:42;;;;;;;8.10;2.53;;;;;;;;;;5111865;28;20297;-62
2022/01/07 11:34:47;;;;;;;6.65;2.10;;;;;;;;;;5113214;28;20039;-62
2022/01/07 11:37:53;;;;;;;7.30;1.90;;;;;;;;;;5113039;28;20039;-62
2022/01/07 11:40:57;;;;;;;4.00;2.00;;;;;;;;;;5100683;28;20360;-61
2022/01/07 11:44:26;;;;;;;7.63;2.47;;;;;;;;;;5113288;28;20368;-61
2022/01/07 11:47:30;;;;;;;7.97;2.65;;;;;;;;;;5112887;28;20547;-61
2022/01/07 11:50:45;;;;;;;8.18;3.35;;;;;;;;;;5113087;28;20035;-61
2022/01/07 11:53:49;;;;;;;7.35;2.05;;;;;;;;;;5113043;28;20059;-62
2022/01/07 11:56:53;;;;;;;6.05;1.95;;;;;;;;;;5099451;28;20035;-62
2022/01/07 11:59:57;;;;;;;6.13;2.60;;;;;;;;;;5111554;28;20048;-62
2022/01/07 12:03:02;;;;;;;7.35;2.40;;;;;;;;;;5099032;28;20039;-62
2022/01/07 12:06:25;;;;;;;4.68;1.90;;;;;;;;;;5111858;28;20035;-62
2022/01/07 12:09:31;;;;;;;9.40;2.35;;;;;;;;;;5099207;28;20035;-61
2022/01/07 12:12:35;;;;;;;6.03;1.98;;;;;;;;;;5112088;28;20340;-62
2022/01/07 12:15:41;;;;;;;5.15;2.50;;;;;;;;;;5112526;28;20047;-62
2022/01/07 12:18:46;;;;;;;4.45;1.88;;;;;;;;;;5110757;28;20494;-62
2022/01/07 12:21:51;;;;;;;5.88;2.03;;;;;;;;;;5112318;28;20391;-60
2022/01/07 12:24:59;;;;;;;10.25;2.70;;;;;;;;;;5112307;28;20513;-61
2022/01/07 12:28:05;;;;;;;6.28;2.35;;;;;;;;;;5112108;28;20042;-61
2022/01/07 12:31:11;;;;;;;7.40;2.65;;;;;;;;;;5112110;28;20043;-62
2022/01/07 12:34:24;;;;;;;4.30;2.20;;;;;;;;;;5112413;28;20035;-60
2022/01/07 12:37:29;;;;;;;8.35;2.42;;;;;;;;;;5099753;28;20035;-64
2022/01/07 12:40:33;;;;;;;11.43;3.10;;;;;;;;;;5099933;28;20051;-62
2022/01/07 12:43:37;;;;;;;7.22;2.53;;;;;;;;;;5111825;28;20391;-63
2022/01/07 12:46:42;;;;;;;5.22;2.28;;;;;;;;;;5111840;28;20047;-61
2022/01/07 12:49:48;;;;;;;4.47;2.58;;;;;;;;;;5111824;28;20035;-62
2022/01/07 12:52:52;;;;;;;8.50;3.55;;;;;;;;;;5112134;28;20043;-62
2022/01/07 12:56:16;;;;;;;6.82;2.50;;;;;;;;;;5111784;28;20035;-63
2022/01/07 12:59:21;;;;;;;7.18;2.55;;;;;;;;;;5099013;28;20502;-63
2022/01/07 13:02:29;;;;;;;8.10;2.90;;;;;;;;;;5111735;28;20036;-62
2022/01/07 13:05:37;;;;;;;3.65;2.50;;;;;;;;;;5111712;28;20043;-62
2022/01/07 13:08:42;;;;;;;9.35;2.75;;;;;;;;;;5111808;28;20039;-62
2022/01/07 13:11:49;;;;;;;7.95;2.50;;;;;;;;;;5099099;28;20043;-61
2022/01/07 13:14:54;;;;;;;8.15;3.08;;;;;;;;;;5111526;28;20036;-61
2022/01/07 13:18:13;;;;;;;6.53;2.63;;;;;;;;;;5111580;28;20047;-61
2022/01/07 13:21:19;;;;;;;5.95;2.50;;;;;;;;;;5099082;28;20035;-63
2022/01/07 13:24:26;;;;;;;4.13;2.08;;;;;;;;;;5111597;28;20043;-61
2022/01/07 13:27:30;;;;;;;4.40;2.22;;;;;;;;;;5111519;28;20035;-61
2022/01/07 13:30:36;;;;;;;4.85;2.20;;;;;;;;;;5111550;28;20043;-62
2022/01/07 13:33:41;;;;;;;6.68;2.17;;;;;;;;;;5111592;28;20043;-61
2022/01/07 13:36:46;;;;;;;3.42;2.05;;;;;;;;;;5111682;28;20039;-61
2022/01/07 13:39:53;;;;;;;5.88;2.30;;;;;;;;;;5111025;28;20463;-61
2022/01/07 13:43:26;;;;;;;5.00;2.10;;;;;;;;;;5111004;28;20032;-61
2022/01/07 13:46:32;;;;;;;6.90;3.42;;;;;;;;;;5111250;28;20028;-62
2022/01/07 13:49:37;;;;;;;7.68;2.65;;;;;;;;;;5111350;28;20031;-63
2022/01/07 13:52:42;;;;;;;16.17;4.13;;;;;;;;;;5111501;28;20478;-60
2022/01/07 13:55:49;;;;;;;4.40;1.90;;;;;;;;;;5114533;28;20034;-62
2022/01/07 13:59:00;;;;;;;8.35;1.90;;;;;;;;;;5114981;28;20510;-62
2022/01/07 14:02:05;;;;;;;5.70;3.00;;;;;;;;;;5115249;28;20036;-61
2022/01/07 14:05:16;;;;;;;7.85;2.92;;;;;;;;;;5102706;28;20044;-61
2022/01/07 14:08:21;;;;;;;8.50;2.07;;;;;;;;;;5115080;28;20027;-62
2022/01/07 14:11:25;;;;;;;4.93;2.60;;;;;;;;;;5115457;28;20027;-62
2022/01/07 14:14:35;;;;;;;4.78;2.42;;;;;;;;;;5115013;28;20036;-63
2022/01/07 14:17:40;;;;;;;5.95;2.65;;;;;;;;;;5114771;28;20372;-62
2022/01/07 14:21:04;;;;;;;3.97;2.65;;;;;;;;;;5114945;28;20039;-62
2022/01/07 14:24:10;;;;;;;5.95;2.50;;;;;;;;;;5102457;28;20044;-61
2022/01/07 14:27:44;;;;;;;6.55;3.05;;;;;;;;;;5114748;28;20368;-62
2022/01/07 14:30:48;;;;;;;8.65;3.72;;;;;;;;;;5114849;28;20039;-62
2022/01/07 14:33:53;;;;;;;7.13;2.47;;;;;;;;;;5114446;28;20027;-60
2022/01/07 14:36:57;;;;;;;4.25;1.63;;;;;;;;;;5114347;28;20482;-63
2022/01/07 14:40:02;;;;;;;4.25;1.90;;;;;;;;;;5114050;28;20051;-62
2022/01/07 14:43:06;;;;;;;8.85;2.90;;;;;;;;;;5114303;28;20490;-62
2022/01/07 14:46:13;;;;;;;6.85;3.70;;;;;;;;;;5114424;28;20035;-62
2022/01/07 14:49:16;;;;;;;4.90;2.25;;;;;;;;;;5114451;28;20057;-63
2022/01/07 14:52:22;;;;;;;2.95;1.83;;;;;;;;;;5101248;28;20039;-61
2022/01/07 14:55:35;;;;;;;6.07;2.40;;;;;;;;;;5114208;28;20040;-62
2022/01/07 14:58:39;;;;;;;5.20;2.85;;;;;;;;;;5113748;28;20052;-61
2022/01/07 15:01:43;;;;;;;7.63;4.25;;;;;;;;;;5101473;28;20031;-62
2022/01/07 15:04:48;;;;;;;4.80;2.58;;;;;;;;;;5100701;28;20040;-61
2022/01/07 15:07:52;;;;;;;4.32;2.40;;;;;;;;;;5113809;28;20031;-62
2022/01/07 15:10:57;;;;;;;3.38;2.35;;;;;;;;;;5113935;28;20044;-61
2022/01/07 15:14:01;;;;;;;7.95;3.20;;;;;;;;;;5113110;28;20043;-61
2022/01/07 15:17:05;;;;;;;7.22;2.30;;;;;;;;;;5099569;28;20035;-61
2022/01/07 15:20:10;;;;;;;7.57;2.80;;;;;;;;;;5112433;28;20040;-62
2022/01/07 15:23:15;;;;;;;9.73;4.18;;;;;;;;;;5112357;28;20036;-63
2022/01/07 15:26:19;;;;;;;6.32;3.20;;;;;;;;;;5112336;28;20035;-60
2022/01/07 15:29:23;;;;;;;13.05;6.28;;;;;;;;;;5113097;28;20032;-61
2022/01/07 15:32:27;;;;;;;10.13;5.38;;;;;;;;;;5113552;28;20501;-61
2022/01/07 15:35:32;;;;;;;6.28;3.22;;;;;;;;;;5100808;28;20055;-60
2022/01/07 15:38:36;;;;;;;9.20;4.65;;;;;;;;;;5100249;28;20555;-62
2022/01/07 15:41:41;;;;;;;6.88;3.17;;;;;;;;;;5112911;28;20031;-61
2022/01/07 15:44:45;;;;;;;7.15;4.00;;;;;;;;;;5113007;28;20043;-61
2022/01/07 15:47:49;;;;;;;8.93;3.55;;;;;;;;;;5112801;28;20376;-61
2022/01/07 15:50:54;;;;;;;8.32;4.85;;;;;;;;;;5112623;28;20043;-61
2022/01/07 15:53:58;;;;;;;5.80;3.50;;;;;;;;;;5112810;28;20040;-62
2022/01/07 15:57:03;;;;;;;5.60;3.78;;;;;;;;;;5112327;28;20044;-61
2022/01/07 16:00:07;;;;;;;8.00;2.95;;;;;;;;;;5111957;28;20039;-62
2022/01/07 16:03:18;;;;;;;7.65;3.35;;;;;;;;;;5112557;28;20035;-61
2022/01/07 16:06:22;;;;;;;6.28;3.03;;;;;;;;;;5112466;28;20039;-61
2022/01/07 16:09:27;;;;;;;6.85;3.30;;;;;;;;;;5111678;28;20040;-61
2022/01/07 16:12:31;;;;;;;9.82;3.05;;;;;;;;;;5099126;28;20036;-62
2022/01/07 16:15:35;;;;;;;4.38;2.10;;;;;;;;;;5111912;28;20032;-60
2022/01/07 16:18:41;;;;;;;7.07;2.20;;;;;;;;;;5110927;28;20357;-61
2022/01/07 16:21:45;;;;;;;6.22;2.78;;;;;;;;;;5112020;28;20040;-61
2022/01/07 16:24:49;;;;;;;10.15;3.67;;;;;;;;;;5112231;28;20036;-62
2022/01/07 16:27:53;;;;;;;9.98;4.25;;;;;;;;;;5099373;28;20050;-62
2022/01/07 16:30:58;;;;;;;7.78;2.97;;;;;;;;;;5111946;28;20039;-62
2022/01/07 16:34:03;;;;;;;5.55;3.05;;;;;;;;;;5099133;28;20040;-62
2022/01/07 16:37:07;;;;;;;9.20;3.13;;;;;;;;;;5111723;28;20044;-61
2022/01/07 16:40:13;;;;;;;8.45;3.63;;;;;;;;;;5098702;28;20043;-61
2022/01/07 16:43:17;;;;;;;14.10;3.67;;;;;;;;;;5111603;28;20364;-62
2022/01/07 16:46:22;;;;;;;15.93;9.65;;;;;;;;;;5111615;28;20054;-62
2022/01/07 16:49:27;;;;;;;13.10;6.05;;;;;;;;;;5111003;28;20043;-62
2022/01/07 16:52:31;;;;;;;23.77;13.23;;;;;;;;;;5110875;28;20054;-61
2022/01/07 16:55:36;;;;;;;10.20;5.53;;;;;;;;;;5111297;28;20046;-61
2022/01/07 16:58:40;;;;;;;10.38;3.67;;;;;;;;;;5111460;28;20060;-61
2022/01/07 17:01:44;;;;;;;14.93;5.18;;;;;;;;;;5098497;28;20051;-61
2022/01/07 17:04:49;;;;;;;25.85;7.10;;;;;;;;;;5111262;28;20062;-62
2022/01/07 17:07:54;;;;;;;9.10;3.75;;;;;;;;;;5098589;28;20513;-61
2022/01/07 17:10:58;;;;;;;6.25;3.75;;;;;;;;;;5111021;28;20036;-62
2022/01/07 17:14:04;;;;;;;11.55;6.40;;;;;;;;;;5111162;28;20043;-62
2022/01/07 17:17:08;;;;;;;13.13;5.07;;;;;;;;;;5111276;28;20066;-61
2022/01/07 17:20:13;;;;;;;7.15;3.95;;;;;;;;;;5111173;28;20063;-62
2022/01/07 17:23:18;;;;;;;12.00;3.97;;;;;;;;;;5111442;28;20039;-60
2022/01/07 17:26:22;;;;;;;12.35;5.28;;;;;;;;;;5111522;28;20058;-60
2022/01/07 17:29:26;;;;;;;9.35;4.65;;;;;;;;;;5111296;28;20043;-61
2022/01/07 17:32:31;;;;;;;7.82;4.78;;;;;;;;;;5098670;28;20039;-61
2022/01/07 17:35:35;;;;;;;8.25;4.53;;;;;;;;;;5111046;28;20035;-61
2022/01/07 17:38:39;;;;;;;5.70;3.83;;;;;;;;;;5110557;28;20043;-61
2022/01/07 17:41:44;;;;;;;7.85;3.90;;;;;;;;;;5110765;28;20031;-61
2022/01/07 17:44:48;;;;;;;8.38;4.15;;;;;;;;;;5110946;28;20475;-61
2022/01/07 17:47:54;;;;;;;6.20;4.13;;;;;;;;;;5098168;28;20047;-61
2022/01/07 17:50:59;;;;;;;6.68;3.92;;;;;;;;;;5110871;28;20028;-61
2022/01/07 17:54:04;;;;;;;6.95;3.60;;;;;;;;;;5110980;28;20040;-62
2022/01/07 17:57:08;;;;;;;11.02;4.80;;;;;;;;;;5111072;28;20036;-60
2022/01/07 18:00:12;;;;;;;9.68;4.93;;;;;;;;;;5110659;28;20525;-60
2022/01/07 18:03:16;;;;;;;12.68;7.30;;;;;;;;;;5098123;28;20044;-62
2022/01/07 18:06:21;;;;;;;16.77;6.35;;;;;;;;;;5110930;28;20042;-62
2022/01/07 18:09:25;;;;;;;33.00;15.82;;;;;;;;;;5110826;28;20046;-60
2022/01/07 18:12:29;;;;;;;65.70;26.83;;;;;;;;;;5110964;28;20054;-61
2022/01/07 18:15:34;;;;;;;56.88;26.58;;;;;;;;;;5110918;28;20125;-61
2022/01/07 18:18:38;;;;;;;77.40;26.95;;;;;;;;;;5110549;28;20054;-62
2022/01/07 18:21:43;;;;;;;33.40;17.20;;;;;;;;;;5110662;28;20042;-63
2022/01/07 18:24:49;;;;;;;18.27;12.18;;;;;;;;;;5110452;28;20533;-62
2022/01/07 18:27:56;;;;;;;20.67;13.55;;;;;;;;;;5110528;28;20042;-64
2022/01/07 18:31:00;;;;;;;18.80;10.63;;;;;;;;;;5110431;28;20043;-76
2022/01/07 18:34:05;;;;;;;15.93;11.45;;;;;;;;;;5086998;28;20054;-74
2022/01/07 18:37:09;;;;;;;14.93;8.27;;;;;;;;;;5098718;28;20043;-74